createdAt,value
2023-09-27T00:00:16.433Z,32.90
2023-09-27T00:01:16.407Z,33.26
2023-09-27T00:02:16.384Z,33.34
2023-09-27T00:03:16.387Z,33.13
2023-09-27T00:04:16.337Z,33.39
2023-09-27T00:05:16.364Z,33.50
2023-09-27T00:06:16.352Z,33.50
2023-09-27T00:07:16.318Z,33.37
2023-09-27T00:08:16.309Z,33.50
2023-09-27T00:09:16.276Z,33.28
2023-09-27T00:10:16.273Z,33.28
2023-09-27T00:11:16.309Z,33.28
2023-09-27T00:12:16.235Z,33.26
2023-09-27T00:13:16.212Z,33.18
2023-09-27T00:14:16.290Z,33.23
2023-09-27T00:15:16.196Z,33.13
2023-09-27T00:16:16.188Z,32.92
2023-09-27T00:17:16.308Z,33.23
2023-09-27T00:18:16.194Z,32.97
2023-09-27T00:19:16.152Z,33.31
2023-09-27T00:20:16.149Z,32.95
2023-09-27T00:21:16.120Z,32.97
2023-09-27T00:22:16.107Z,32.87
2023-09-27T00:23:16.138Z,32.79
2023-09-27T00:24:16.092Z,33.37
2023-09-27T00:25:16.111Z,33.34
2023-09-27T00:26:16.095Z,33.13
2023-09-27T00:27:16.045Z,33.18
2023-09-27T00:28:16.058Z,32.77
2023-09-27T00:29:16.044Z,32.95
2023-09-27T00:30:16.079Z,32.77
2023-09-27T00:31:15.998Z,32.26
2023-09-27T00:32:16.034Z,32.54
2023-09-27T00:33:16.008Z,31.97
2023-09-27T00:34:15.982Z,32.34
2023-09-27T00:35:16.130Z,31.92
2023-09-27T00:36:15.922Z,32.17
2023-09-27T00:37:15.916Z,31.90
2023-09-27T00:38:15.960Z,32.04
2023-09-27T00:39:15.886Z,31.95
2023-09-27T00:40:15.912Z,32.09
2023-09-27T00:41:15.886Z,32.31
2023-09-27T00:42:15.872Z,32.26
2023-09-27T00:43:15.857Z,32.19
2023-09-27T00:44:15.846Z,32.64
2023-09-27T00:45:15.814Z,32.44
2023-09-27T00:46:15.863Z,32.44
2023-09-27T00:47:15.819Z,32.82
2023-09-27T00:48:15.842Z,32.74
2023-09-27T00:49:15.765Z,32.64
2023-09-27T00:50:15.894Z,33.08
2023-09-27T00:51:15.757Z,33.05
2023-09-27T00:52:15.755Z,33.08
2023-09-27T00:53:15.775Z,32.92
2023-09-27T00:54:15.728Z,32.69
2023-09-27T00:55:15.677Z,32.95
2023-09-27T00:56:15.693Z,32.77
2023-09-27T00:57:15.657Z,33.13
2023-09-27T00:58:15.650Z,33.44
2023-09-27T00:59:15.654Z,33.52
2023-09-27T01:00:15.648Z,33.58
2023-09-27T01:01:15.624Z,33.28
2023-09-27T01:02:15.627Z,33.23
2023-09-27T01:03:15.669Z,33.26
2023-09-27T01:04:15.561Z,33.52
2023-09-27T01:05:15.595Z,33.42
2023-09-27T01:06:15.603Z,33.88
2023-09-27T01:07:15.522Z,33.50
2023-09-27T01:08:15.560Z,34.15
2023-09-27T01:09:15.533Z,33.66
2023-09-27T01:10:15.492Z,34.15
2023-09-27T01:11:15.515Z,33.85
2023-09-27T01:12:15.454Z,33.88
2023-09-27T01:13:15.470Z,33.82
2023-09-27T01:14:15.465Z,33.90
2023-09-27T01:15:15.440Z,34.12
2023-09-27T01:16:15.433Z,34.15
2023-09-27T01:17:15.461Z,34.15
2023-09-27T01:18:15.400Z,34.12
2023-09-27T01:19:15.369Z,34.10
2023-09-27T01:20:15.444Z,33.90
2023-09-27T01:21:15.392Z,33.90
2023-09-27T01:22:15.332Z,33.93
2023-09-27T01:23:15.333Z,34.12
2023-09-27T01:24:15.297Z,34.04
2023-09-27T01:25:15.331Z,34.10
2023-09-27T01:26:15.298Z,34.23
2023-09-27T01:27:15.269Z,34.37
2023-09-27T01:28:15.253Z,34.51
2023-09-27T01:29:15.273Z,34.63
2023-09-27T01:30:15.242Z,34.74
2023-09-27T01:31:15.274Z,34.89
2023-09-27T01:32:15.231Z,34.89
2023-09-27T01:33:15.252Z,34.94
2023-09-27T01:34:15.183Z,35.06
2023-09-27T01:35:15.243Z,35.27
2023-09-27T01:36:15.151Z,35.35
2023-09-27T01:37:15.149Z,35.53
2023-09-27T01:38:15.157Z,35.47
2023-09-27T01:39:15.119Z,35.50
2023-09-27T01:40:15.090Z,35.53
2023-09-27T01:41:15.105Z,35.69
2023-09-27T01:42:15.121Z,35.84
2023-09-27T01:43:15.136Z,36.05
2023-09-27T01:44:15.086Z,35.99
2023-09-27T01:45:15.041Z,36.18
2023-09-27T01:46:15.082Z,36.27
2023-09-27T01:47:15.033Z,36.46
2023-09-27T01:48:15.133Z,36.46
2023-09-27T01:49:14.988Z,36.49
2023-09-27T01:50:15.004Z,36.65
2023-09-27T01:51:14.958Z,36.91
2023-09-27T01:52:14.947Z,36.78
2023-09-27T01:53:14.953Z,37.04
2023-09-27T01:54:14.952Z,37.07
2023-09-27T01:55:14.905Z,36.65
2023-09-27T01:56:14.936Z,36.68
2023-09-27T01:57:14.893Z,37.00
2023-09-27T01:58:14.862Z,36.94
2023-09-27T01:59:14.922Z,36.81
2023-09-27T02:00:14.869Z,36.91
2023-09-27T02:01:14.889Z,37.00
2023-09-27T02:02:14.824Z,37.10
2023-09-27T02:03:14.824Z,37.00
2023-09-27T02:04:14.862Z,37.30
2023-09-27T02:05:14.942Z,36.91
2023-09-27T02:06:14.757Z,37.04
2023-09-27T02:07:14.740Z,37.07
2023-09-27T02:08:14.780Z,37.00
2023-09-27T02:09:14.734Z,36.97
2023-09-27T02:10:14.711Z,37.04
2023-09-27T02:11:14.782Z,36.94
2023-09-27T02:12:14.674Z,36.97
2023-09-27T02:13:14.666Z,37.00
2023-09-27T02:14:14.683Z,37.04
2023-09-27T02:15:14.656Z,37.20
2023-09-27T02:16:14.688Z,37.40
2023-09-27T02:17:14.658Z,37.33
2023-09-27T02:18:14.675Z,37.37
2023-09-27T02:19:14.591Z,37.40
2023-09-27T02:20:14.626Z,37.63
2023-09-27T02:21:14.632Z,37.50
2023-09-27T02:22:14.559Z,37.56
2023-09-27T02:23:14.589Z,37.63
2023-09-27T02:24:14.542Z,37.63
2023-09-27T02:25:14.508Z,37.77
2023-09-27T02:26:14.594Z,37.73
2023-09-27T02:27:14.510Z,37.87
2023-09-27T02:28:14.490Z,37.73
2023-09-27T02:29:14.548Z,37.70
2023-09-27T02:30:14.461Z,37.60
2023-09-27T02:31:14.486Z,37.90
2023-09-27T02:32:14.478Z,38.04
2023-09-27T02:33:14.449Z,37.94
2023-09-27T02:34:14.454Z,37.80
2023-09-27T02:35:14.586Z,37.47
2023-09-27T02:36:14.364Z,37.77
2023-09-27T02:37:14.355Z,37.77
2023-09-27T02:38:14.381Z,37.67
2023-09-27T02:39:14.337Z,37.90
2023-09-27T02:40:15.042Z,37.90
2023-09-27T02:41:14.349Z,37.67
2023-09-27T02:42:14.295Z,37.83
2023-09-27T02:43:14.276Z,37.70
2023-09-27T02:44:14.320Z,37.90
2023-09-27T02:45:14.252Z,38.01
2023-09-27T02:46:14.281Z,37.80
2023-09-27T02:47:14.274Z,37.94
2023-09-27T02:48:14.247Z,37.77
2023-09-27T02:49:14.224Z,37.83
2023-09-27T02:50:14.215Z,37.94
2023-09-27T02:51:14.207Z,37.63
2023-09-27T02:52:14.170Z,37.73
2023-09-27T02:53:14.179Z,37.67
2023-09-27T02:54:14.138Z,37.43
2023-09-27T02:55:14.120Z,37.63
2023-09-27T02:56:14.180Z,37.60
2023-09-27T02:57:14.149Z,37.23
2023-09-27T02:58:14.098Z,37.30
2023-09-27T02:59:14.123Z,37.23
2023-09-27T03:00:14.058Z,37.23
2023-09-27T03:01:14.085Z,37.37
2023-09-27T03:02:14.061Z,37.37
2023-09-27T03:03:14.116Z,37.30
2023-09-27T03:04:14.038Z,37.50
2023-09-27T03:05:14.033Z,37.30
2023-09-27T03:06:14.004Z,37.53
2023-09-27T03:07:13.970Z,37.77
2023-09-27T03:08:14.050Z,37.50
2023-09-27T03:09:13.989Z,37.83
2023-09-27T03:10:13.953Z,37.80
2023-09-27T03:11:13.935Z,37.87
2023-09-27T03:12:13.903Z,37.80
2023-09-27T03:13:13.896Z,37.77
2023-09-27T03:14:13.948Z,37.63
2023-09-27T03:15:14.202Z,38.01
2023-09-27T03:16:13.879Z,38.04
2023-09-27T03:17:13.847Z,37.80
2023-09-27T03:18:13.877Z,38.11
2023-09-27T03:19:13.809Z,37.94
2023-09-27T03:20:13.837Z,37.87
2023-09-27T03:21:13.793Z,37.90
2023-09-27T03:22:13.785Z,37.87
2023-09-27T03:23:13.796Z,37.83
2023-09-27T03:24:13.745Z,37.47
2023-09-27T03:25:13.739Z,37.77
2023-09-27T03:26:13.807Z,37.67
2023-09-27T03:27:13.713Z,37.56
2023-09-27T03:28:13.697Z,37.63
2023-09-27T03:29:13.723Z,37.83
2023-09-27T03:30:13.679Z,37.77
2023-09-27T03:31:13.682Z,38.04
2023-09-27T03:32:13.745Z,38.08
2023-09-27T03:33:13.677Z,38.11
2023-09-27T03:34:13.620Z,38.25
2023-09-27T03:35:13.708Z,38.39
2023-09-27T03:36:13.604Z,38.53
2023-09-27T03:37:13.575Z,38.74
2023-09-27T03:38:13.586Z,38.67
2023-09-27T03:39:13.549Z,38.74
2023-09-27T03:40:13.555Z,39.06
2023-09-27T03:41:13.546Z,39.03
2023-09-27T03:42:13.515Z,38.99
2023-09-27T03:43:13.533Z,39.10
2023-09-27T03:44:13.509Z,39.32
2023-09-27T03:45:13.543Z,39.25
2023-09-27T03:46:13.470Z,39.43
2023-09-27T03:47:13.548Z,39.51
2023-09-27T03:48:13.553Z,39.88
2023-09-27T03:49:13.459Z,40.11
2023-09-27T03:50:13.521Z,40.42
2023-09-27T03:51:13.405Z,40.49
2023-09-27T03:52:13.412Z,40.85
2023-09-27T03:53:13.381Z,40.89
2023-09-27T03:54:13.363Z,41.17
2023-09-27T03:55:13.421Z,41.41
2023-09-27T03:56:13.373Z,41.57
2023-09-27T03:57:13.321Z,41.82
2023-09-27T03:58:13.356Z,41.82
2023-09-27T03:59:13.369Z,42.07
2023-09-27T04:00:13.332Z,42.16
2023-09-27T04:01:13.295Z,42.41
2023-09-27T04:02:13.374Z,42.46
2023-09-27T04:03:13.383Z,42.33
2023-09-27T04:04:13.303Z,42.50
2023-09-27T04:05:13.278Z,42.50
2023-09-27T04:06:13.238Z,42.37
2023-09-27T04:07:13.215Z,42.37
2023-09-27T04:08:13.272Z,42.54
2023-09-27T04:09:13.169Z,42.20
2023-09-27T04:10:13.148Z,42.07
2023-09-27T04:11:13.196Z,42.12
2023-09-27T04:12:13.174Z,42.24
2023-09-27T04:13:13.113Z,42.24
2023-09-27T04:14:13.172Z,42.41
2023-09-27T04:15:13.109Z,42.58
2023-09-27T04:16:13.127Z,42.50
2023-09-27T04:17:13.126Z,42.63
2023-09-27T04:18:13.105Z,42.46
2023-09-27T04:19:13.042Z,42.41
2023-09-27T04:20:13.064Z,42.58
2023-09-27T04:21:13.040Z,42.58
2023-09-27T04:22:13.040Z,42.54
2023-09-27T04:23:13.051Z,42.84
2023-09-27T04:24:12.978Z,42.50
2023-09-27T04:25:12.959Z,42.58
2023-09-27T04:26:13.052Z,42.37
2023-09-27T04:27:12.950Z,42.33
2023-09-27T04:28:12.934Z,42.46
2023-09-27T04:29:13.019Z,42.20
2023-09-27T04:30:12.897Z,42.03
2023-09-27T04:31:12.922Z,41.99
2023-09-27T04:32:12.910Z,41.66
2023-09-27T04:33:12.911Z,41.57
2023-09-27T04:34:12.885Z,41.25
2023-09-27T04:35:12.883Z,41.13
2023-09-27T04:36:12.824Z,41.01
2023-09-27T04:37:12.830Z,40.73
2023-09-27T04:38:12.838Z,40.65
2023-09-27T04:39:12.780Z,40.49
2023-09-27T04:40:13.032Z,40.69
2023-09-27T04:41:12.779Z,40.46
2023-09-27T04:42:12.744Z,40.61
2023-09-27T04:43:12.737Z,40.30
2023-09-27T04:44:12.737Z,40.18
2023-09-27T04:45:12.717Z,40.15
2023-09-27T04:46:12.781Z,40.07
2023-09-27T04:47:12.760Z,39.80
2023-09-27T04:48:12.695Z,39.62
2023-09-27T04:49:12.665Z,39.58
2023-09-27T04:50:12.670Z,39.28
2023-09-27T04:51:12.636Z,39.54
2023-09-27T04:52:12.656Z,39.43
2023-09-27T04:53:12.633Z,39.25
2023-09-27T04:54:12.629Z,39.28
2023-09-27T04:55:12.603Z,39.25
2023-09-27T04:56:12.989Z,39.28
2023-09-27T04:57:12.548Z,39.54
2023-09-27T04:58:12.570Z,39.62
2023-09-27T04:59:12.520Z,39.62
2023-09-27T05:00:12.513Z,39.65
2023-09-27T05:01:12.551Z,39.65
2023-09-27T05:02:12.519Z,39.77
2023-09-27T05:03:12.587Z,39.80
2023-09-27T05:04:12.530Z,39.65
2023-09-27T05:05:12.599Z,39.99
2023-09-27T05:06:12.437Z,39.88
2023-09-27T05:07:12.516Z,40.18
2023-09-27T05:08:12.500Z,40.15
2023-09-27T05:09:12.429Z,40.46
2023-09-27T05:10:12.406Z,40.53
2023-09-27T05:11:13.597Z,40.61
2023-09-27T05:12:12.389Z,40.38
2023-09-27T05:13:12.402Z,40.46
2023-09-27T05:14:12.372Z,40.15
2023-09-27T05:15:12.371Z,40.38
2023-09-27T05:16:12.323Z,40.11
2023-09-27T05:17:12.350Z,40.22
2023-09-27T05:18:12.351Z,40.26
2023-09-27T05:19:12.277Z,40.46
2023-09-27T05:20:13.819Z,40.57
2023-09-27T05:21:12.265Z,40.57
2023-09-27T05:22:12.236Z,40.38
2023-09-27T05:23:12.264Z,40.46
2023-09-27T05:24:12.208Z,40.49
2023-09-27T05:25:12.690Z,40.53
2023-09-27T05:26:12.244Z,40.61
2023-09-27T05:27:12.174Z,40.57
2023-09-27T05:28:12.194Z,40.85
2023-09-27T05:29:12.183Z,40.93
2023-09-27T05:30:12.118Z,41.01
2023-09-27T05:31:12.157Z,40.89
2023-09-27T05:32:12.248Z,40.93
2023-09-27T05:33:12.275Z,40.73
2023-09-27T05:34:12.103Z,40.81
2023-09-27T05:35:12.104Z,40.89
2023-09-27T05:36:12.049Z,40.89
2023-09-27T05:37:12.045Z,40.81
2023-09-27T05:38:12.086Z,40.85
2023-09-27T05:39:12.018Z,40.73
2023-09-27T05:40:12.232Z,40.81
2023-09-27T05:41:12.047Z,40.61
2023-09-27T05:42:11.973Z,40.89
2023-09-27T05:43:11.999Z,40.53
2023-09-27T05:44:12.096Z,40.61
2023-09-27T05:45:11.946Z,40.38
2023-09-27T05:46:11.917Z,41.01
2023-09-27T05:47:12.026Z,40.89
2023-09-27T05:48:11.993Z,40.69
2023-09-27T05:49:12.000Z,39.99
2023-09-27T05:50:11.908Z,40.15
2023-09-27T05:51:11.868Z,39.96
2023-09-27T05:52:11.847Z,39.77
2023-09-27T05:53:11.885Z,39.58
2023-09-27T05:54:11.862Z,39.51
2023-09-27T05:55:11.841Z,39.28
2023-09-27T05:56:11.837Z,39.14
2023-09-27T05:57:11.778Z,38.71
2023-09-27T05:58:11.777Z,38.78
2023-09-27T05:59:11.877Z,39.47
2023-09-27T06:00:11.797Z,39.17
2023-09-27T06:01:11.775Z,39.14
2023-09-27T06:02:11.781Z,39.03
2023-09-27T06:03:11.817Z,39.36
2023-09-27T06:04:11.752Z,39.36
2023-09-27T06:05:11.702Z,39.47
2023-09-27T06:06:11.722Z,39.25
2023-09-27T06:07:11.652Z,39.21
2023-09-27T06:08:11.675Z,39.17
2023-09-27T06:09:11.626Z,38.92
2023-09-27T06:10:11.629Z,38.81
2023-09-27T06:11:11.620Z,38.60
2023-09-27T06:12:11.656Z,38.49
2023-09-27T06:13:11.593Z,38.53
2023-09-27T06:14:11.912Z,38.46
2023-09-27T06:15:11.590Z,37.90
2023-09-27T06:16:11.593Z,37.37
2023-09-27T06:17:11.593Z,37.30
2023-09-27T06:18:11.639Z,36.78
2023-09-27T06:19:11.504Z,36.55
2023-09-27T06:20:11.572Z,36.58
2023-09-27T06:21:11.491Z,36.18
2023-09-27T06:22:11.451Z,36.24
2023-09-27T06:23:11.494Z,35.99
2023-09-27T06:24:11.449Z,35.93
2023-09-27T06:25:11.416Z,35.78
2023-09-27T06:26:11.470Z,35.72
2023-09-27T06:27:11.380Z,35.38
2023-09-27T06:28:11.419Z,35.53
2023-09-27T06:29:11.418Z,35.35
2023-09-27T06:30:11.350Z,35.33
2023-09-27T06:31:11.369Z,35.42
2023-09-27T06:32:11.394Z,35.30
2023-09-27T06:33:11.395Z,35.47
2023-09-27T06:34:11.318Z,35.50
2023-09-27T06:35:11.327Z,35.38
2023-09-27T06:36:11.279Z,35.47
2023-09-27T06:37:11.263Z,35.18
2023-09-27T06:38:11.301Z,35.06
2023-09-27T06:39:11.242Z,35.06
2023-09-27T06:40:11.257Z,34.54
2023-09-27T06:41:11.255Z,34.57
2023-09-27T06:42:11.203Z,34.60
2023-09-27T06:43:11.196Z,34.26
2023-09-27T06:44:11.201Z,34.21
2023-09-27T06:45:11.158Z,34.04
2023-09-27T06:46:11.184Z,33.96
2023-09-27T06:47:11.288Z,33.93
2023-09-27T06:48:11.317Z,33.85
2023-09-27T06:49:11.202Z,33.50
2023-09-27T06:50:11.171Z,33.28
2023-09-27T06:51:11.090Z,33.37
2023-09-27T06:52:11.085Z,33.08
2023-09-27T06:53:22.026Z,32.72
2023-09-27T06:54:11.116Z,32.26
2023-09-27T06:55:11.032Z,32.04
2023-09-27T06:56:11.092Z,31.51
2023-09-27T06:57:11.038Z,31.37
2023-09-27T06:58:11.021Z,31.03
2023-09-27T06:59:10.994Z,30.58
2023-09-27T07:00:11.011Z,30.29
2023-09-27T07:01:11.015Z,29.84
2023-09-27T07:02:11.017Z,29.57
2023-09-27T07:03:11.047Z,29.22
2023-09-27T07:04:10.986Z,28.90
2023-09-27T07:05:10.948Z,28.70
2023-09-27T07:06:10.896Z,28.43
2023-09-27T07:07:10.876Z,28.22
2023-09-27T07:08:10.919Z,27.92
2023-09-27T07:09:10.858Z,27.77
2023-09-27T07:10:10.836Z,27.62
2023-09-27T07:11:10.866Z,27.32
2023-09-27T07:12:10.803Z,27.20
2023-09-27T07:13:10.807Z,26.93
2023-09-27T07:14:10.889Z,27.06
2023-09-27T07:15:10.788Z,27.27
2023-09-27T07:16:10.764Z,27.32
2023-09-27T07:17:10.801Z,27.27
2023-09-27T07:18:10.930Z,27.44
2023-09-27T07:19:10.776Z,27.44
2023-09-27T07:20:10.776Z,27.13
2023-09-27T07:21:10.691Z,27.11
2023-09-27T07:22:10.701Z,26.90
2023-09-27T07:23:10.692Z,26.73
2023-09-27T07:24:10.671Z,26.51
2023-09-27T07:25:10.642Z,26.83
2023-09-27T07:26:10.703Z,26.66
2023-09-27T07:27:10.655Z,26.61
2023-09-27T07:28:10.606Z,26.66
2023-09-27T07:29:10.729Z,26.73
2023-09-27T07:30:10.591Z,26.58
2023-09-27T07:31:10.607Z,26.48
2023-09-27T07:32:10.640Z,26.08
2023-09-27T07:33:10.752Z,26.15
2023-09-27T07:34:10.556Z,26.00
2023-09-27T07:35:10.553Z,25.95
2023-09-27T07:36:10.497Z,25.88
2023-09-27T07:37:10.480Z,26.59
2023-09-27T07:38:10.606Z,27.18
2023-09-27T07:39:10.558Z,27.70
2023-09-27T07:40:10.828Z,28.29
2023-09-27T07:41:10.656Z,28.16
2023-09-27T07:42:10.455Z,28.90
2023-09-27T07:43:10.420Z,32.72
2023-09-27T07:44:10.462Z,36.40
2023-09-27T07:45:10.379Z,39.96
2023-09-27T07:46:10.378Z,42.80
2023-09-27T07:47:10.400Z,43.51
2023-09-27T07:48:10.381Z,42.67
2023-09-27T07:49:10.357Z,41.49
2023-09-27T07:50:10.372Z,40.97
2023-09-27T07:51:10.300Z,40.22
2023-09-27T07:52:10.297Z,39.80
2023-09-27T07:53:10.415Z,39.54
2023-09-27T07:54:10.405Z,38.99
2023-09-27T07:55:10.255Z,38.92
2023-09-27T07:56:10.473Z,39.99
2023-09-27T07:57:10.242Z,40.38
2023-09-27T07:58:10.210Z,40.61
2023-09-27T07:59:10.230Z,41.33
2023-09-27T08:00:10.216Z,41.57
2023-09-27T08:01:10.186Z,41.01
2023-09-27T08:02:10.206Z,40.11
2023-09-27T08:03:10.294Z,39.03
2023-09-27T08:04:12.104Z,37.90
2023-09-27T08:05:10.333Z,36.74
2023-09-27T08:06:10.107Z,36.30
2023-09-27T08:07:10.139Z,35.93
2023-09-27T08:08:10.132Z,35.53
2023-09-27T08:09:20.527Z,35.65
2023-09-27T08:10:21.487Z,35.21
2023-09-27T08:11:10.059Z,34.83
2023-09-27T08:12:10.035Z,34.37
2023-09-27T08:13:10.019Z,33.69
2023-09-27T08:14:10.039Z,33.18
2023-09-27T08:15:10.021Z,32.54
2023-09-27T08:16:10.054Z,31.80
2023-09-27T08:17:10.026Z,32.46
2023-09-27T08:18:10.033Z,33.37
2023-09-27T08:19:10.173Z,34.49
2023-09-27T08:20:09.988Z,35.00
2023-09-27T08:21:09.922Z,34.77
2023-09-27T08:22:09.950Z,34.51
2023-09-27T08:23:09.934Z,34.46
2023-09-27T08:24:09.876Z,34.43
2023-09-27T08:25:09.865Z,34.10
2023-09-27T08:26:09.866Z,33.82
2023-09-27T08:27:09.836Z,34.15
2023-09-27T08:28:09.850Z,33.74
2023-09-27T08:29:09.839Z,33.21
2023-09-27T08:30:09.816Z,33.39
2023-09-27T08:31:09.835Z,34.83
2023-09-27T08:32:09.809Z,37.97
2023-09-27T08:33:09.821Z,39.92
2023-09-27T08:34:09.762Z,40.73
2023-09-27T08:35:09.763Z,41.78
2023-09-27T08:36:09.721Z,41.25
2023-09-27T08:37:09.704Z,40.81
2023-09-27T08:38:09.727Z,41.25
2023-09-27T08:39:09.709Z,43.74
2023-09-27T08:40:09.675Z,46.39
2023-09-27T08:41:09.692Z,47.19
2023-09-27T08:42:09.670Z,47.57
2023-09-27T08:43:09.638Z,50.66
2023-09-27T08:44:09.671Z,55.08
2023-09-27T08:45:09.667Z,61.21
2023-09-27T08:46:09.628Z,66.49
2023-09-27T08:47:09.715Z,71.59
2023-09-27T08:48:09.599Z,79.66
2023-09-27T08:49:09.588Z,89.98
2023-09-27T08:50:09.588Z,98.38
2023-09-27T08:51:09.543Z,108.61
2023-09-27T08:52:09.563Z,120.52
2023-09-27T08:53:09.572Z,134.07
2023-09-27T08:54:09.513Z,147.48
2023-09-27T08:55:09.496Z,159.66
2023-09-27T08:56:09.530Z,171.03
2023-09-27T08:57:09.475Z,183.34
2023-09-27T08:58:09.466Z,194.39
2023-09-27T08:59:09.446Z,207.84
2023-09-27T09:00:09.525Z,215.14
2023-09-27T09:01:09.410Z,221.63
2023-09-27T09:02:09.444Z,219.57
2023-09-27T09:03:09.541Z,215.28
2023-09-27T09:04:09.422Z,202.49
2023-09-27T09:05:09.390Z,197.65
2023-09-27T09:06:09.390Z,195.43
2023-09-27T09:07:09.337Z,197.65
2023-09-27T09:08:09.421Z,199.55
2023-09-27T09:09:09.335Z,207.31
2023-09-27T09:10:09.294Z,207.05
2023-09-27T09:11:09.337Z,206.15
2023-09-27T09:12:09.286Z,214.16
2023-09-27T09:13:09.298Z,223.88
2023-09-27T09:14:09.302Z,241.02
2023-09-27T09:15:09.243Z,256.75
2023-09-27T09:16:09.276Z,267.33
2023-09-27T09:17:09.293Z,286.07
2023-09-27T09:18:09.267Z,301.47
2023-09-27T09:19:09.283Z,306.50
2023-09-27T09:20:09.245Z,314.67
2023-09-27T09:21:09.151Z,335.42
2023-09-27T09:22:09.179Z,356.39
2023-09-27T09:23:09.196Z,372.88
2023-09-27T09:24:09.192Z,383.46
2023-09-27T09:25:09.205Z,403.02
2023-09-27T09:26:09.141Z,432.88
2023-09-27T09:27:09.154Z,464.93
2023-09-27T09:28:09.134Z,492.90
2023-09-27T09:29:09.101Z,510.51
2023-09-27T09:30:09.074Z,495.45
2023-09-27T09:31:09.116Z,494.72
2023-09-27T09:32:09.065Z,511.67
2023-09-27T09:33:09.124Z,520.80
2023-09-27T09:34:09.037Z,533.20
2023-09-27T09:35:09.090Z,547.98
2023-09-27T09:36:09.026Z,551.58
2023-09-27T09:37:08.990Z,580.66
2023-09-27T09:38:09.025Z,633.80
2023-09-27T09:39:09.020Z,673.85
2023-09-27T09:40:08.941Z,682.06
2023-09-27T09:41:09.032Z,696.20
2023-09-27T09:42:08.914Z,717.77
2023-09-27T09:43:08.946Z,737.46
2023-09-27T09:44:08.952Z,753.92
2023-09-27T09:45:08.892Z,758.60
2023-09-27T09:46:09.051Z,757.75
2023-09-27T09:47:08.954Z,757.75
2023-09-27T09:48:08.890Z,757.32
2023-09-27T09:49:08.861Z,764.20
2023-09-27T09:50:08.872Z,762.47
2023-09-27T09:51:09.138Z,759.03
2023-09-27T09:52:08.851Z,735.04
2023-09-27T09:53:08.823Z,763.34
2023-09-27T09:54:09.358Z,793.04
2023-09-27T09:55:36.314Z,841.15
2023-09-27T09:56:29.121Z,856.69
2023-09-27T09:57:16.026Z,902.68
2023-09-27T09:58:08.810Z,919.97
2023-09-27T09:59:08.767Z,925.03
2023-09-27T10:00:08.771Z,958.66
2023-09-27T10:01:08.732Z,1021.26
2023-09-27T10:02:08.749Z,1067.46
2023-09-27T10:03:08.773Z,1083.80
2023-09-27T10:04:08.858Z,1097.96
2023-09-27T10:05:08.731Z,1182.94
2023-09-27T10:06:08.712Z,1250.00
2023-09-27T10:07:08.678Z,1321.22
2023-09-27T10:08:08.900Z,1359.96
2023-09-27T10:09:08.626Z,1436.96
2023-09-27T10:10:08.619Z,1421.78
2023-09-27T10:11:08.656Z,1393.78
2023-09-27T10:12:08.673Z,1401.04
2023-09-27T10:13:08.631Z,1395.23
2023-09-27T10:14:08.620Z,1424.79
2023-09-27T10:15:08.556Z,1373.85
2023-09-27T10:16:08.619Z,1358.58
2023-09-27T10:17:08.614Z,1329.05
2023-09-27T10:18:08.672Z,1300.77
2023-09-27T10:19:08.569Z,1325.12
2023-09-27T10:20:08.572Z,1316.05
2023-09-27T10:21:08.530Z,1322.52
2023-09-27T10:22:08.505Z,1326.43
2023-09-27T10:23:08.505Z,1330.37
2023-09-27T10:24:08.513Z,1280.95
2023-09-27T10:25:08.480Z,1280.95
2023-09-27T10:26:08.452Z,1342.31
2023-09-27T10:27:08.424Z,1412.81
2023-09-27T10:28:08.447Z,1507.85
2023-09-27T10:29:08.655Z,1639.24
2023-09-27T10:30:08.459Z,1751.30
2023-09-27T10:31:08.509Z,1755.87
2023-09-27T10:32:08.427Z,1790.94
2023-09-27T10:33:08.412Z,1762.78
2023-09-27T10:34:08.370Z,1847.53
2023-09-27T10:35:08.430Z,1913.23
2023-09-27T10:36:09.372Z,1902.40
2023-09-27T10:37:18.511Z,1925.55
2023-09-27T10:38:08.925Z,1883.75
2023-09-27T10:39:08.366Z,1956.36
2023-09-27T10:40:08.878Z,1989.65
2023-09-27T10:41:08.395Z,1898.38
2023-09-27T10:42:08.375Z,1870.65
2023-09-27T10:43:08.317Z,1889.04
2023-09-27T10:44:08.319Z,1886.40
2023-09-27T10:45:09.791Z,1846.26
2023-09-27T10:46:08.239Z,1822.49
2023-09-27T10:47:08.242Z,1753.58
2023-09-27T10:48:08.275Z,1707.94
2023-09-27T10:49:08.250Z,1722.15
2023-09-27T10:50:08.284Z,1793.33
2023-09-27T10:51:08.178Z,1777.92
2023-09-27T10:52:08.206Z,1735.48
2023-09-27T10:53:08.275Z,1805.37
2023-09-27T10:54:08.267Z,1837.43
2023-09-27T10:55:08.145Z,1777.92
2023-09-27T10:56:08.128Z,1718.85
2023-09-27T10:57:08.111Z,1664.60
2023-09-27T10:58:08.127Z,1552.22
2023-09-27T10:59:08.128Z,1497.77
2023-09-27T11:00:08.096Z,1468.34
2023-09-27T11:01:08.082Z,1486.19
2023-09-27T11:02:08.095Z,1568.51
2023-09-27T11:03:08.134Z,1613.68
2023-09-27T11:04:08.058Z,1656.40
2023-09-27T11:05:08.355Z,1742.23
2023-09-27T11:06:08.089Z,1739.97
2023-09-27T11:07:07.994Z,1750.16
2023-09-27T11:08:08.032Z,1801.74
2023-09-27T11:09:08.076Z,1794.53
2023-09-27T11:10:07.971Z,1757.02
2023-09-27T11:11:08.018Z,1731.02
2023-09-27T11:12:07.943Z,1795.73
2023-09-27T11:13:07.979Z,1809.01
2023-09-27T11:14:07.981Z,1843.73
2023-09-27T11:15:07.908Z,1807.80
2023-09-27T11:16:07.970Z,1878.49
2023-09-27T11:17:08.055Z,1907.80
2023-09-27T11:18:07.966Z,1917.32
2023-09-27T11:19:07.873Z,2007.46
2023-09-27T11:20:07.969Z,2034.80
2023-09-27T11:21:07.837Z,2059.72
2023-09-27T11:22:07.938Z,2024.08
2023-09-27T11:23:07.863Z,2004.47
2023-09-27T11:24:07.814Z,2005.96
2023-09-27T11:25:07.806Z,1975.04
2023-09-27T11:26:07.835Z,1914.59
2023-09-27T11:27:07.780Z,1943.64
2023-09-27T11:28:07.825Z,2011.97
2023-09-27T11:29:07.799Z,2013.47
2023-09-27T11:30:07.826Z,2030.19
2023-09-27T11:31:08.601Z,1969.25
2023-09-27T11:32:08.395Z,1975.04
2023-09-27T11:33:08.050Z,1885.07
2023-09-27T11:34:07.702Z,1837.43
2023-09-27T11:35:07.726Z,1865.46
2023-09-27T11:36:07.691Z,1878.49
2023-09-27T11:37:07.753Z,1952.10
2023-09-27T11:38:07.725Z,1975.04
2023-09-27T11:39:07.674Z,1873.26
2023-09-27T11:40:07.686Z,1902.40
2023-09-27T11:41:08.413Z,1894.37
2023-09-27T11:42:07.621Z,1887.72
2023-09-27T11:43:07.674Z,1925.55
2023-09-27T11:44:07.650Z,1983.78
2023-09-27T11:45:07.620Z,1901.06
2023-09-27T11:46:07.612Z,1815.11
2023-09-27T11:47:07.622Z,1776.75
2023-09-27T11:48:07.634Z,1816.34
2023-09-27T11:49:07.551Z,1795.73
2023-09-27T11:50:07.657Z,1753.58
2023-09-27T11:51:07.654Z,1810.23
2023-09-27T11:52:07.527Z,1907.80
2023-09-27T11:53:07.603Z,1973.59
2023-09-27T11:54:07.527Z,2013.47
2023-09-27T11:55:07.494Z,2018.00
2023-09-27T11:56:07.538Z,2011.97
2023-09-27T11:57:07.469Z,2118.11
2023-09-27T11:58:07.441Z,2335.07
2023-09-27T11:59:07.521Z,2561.90
2023-09-27T12:00:07.545Z,2632.09
2023-09-27T12:01:07.435Z,2619.28
2023-09-27T12:02:16.822Z,2586.54
2023-09-27T12:03:07.612Z,2559.47
2023-09-27T12:04:07.831Z,2564.35
2023-09-27T12:05:07.584Z,2599.03
2023-09-27T12:06:07.661Z,2708.96
2023-09-27T12:07:07.502Z,2619.28
2023-09-27T12:08:07.406Z,2497.68
2023-09-27T12:09:07.403Z,2500.00
2023-09-27T12:10:07.390Z,2425.61
2023-09-27T12:11:07.368Z,2333.04
2023-09-27T12:12:07.476Z,2335.07
2023-09-27T12:13:07.289Z,2324.98
2023-09-27T12:14:07.296Z,2264.31
2023-09-27T12:15:11.488Z,2347.29
2023-09-27T12:16:08.468Z,2388.99
2023-09-27T12:17:07.322Z,2293.26
2023-09-27T12:18:07.900Z,2243.54
2023-09-27T12:19:07.236Z,2186.99
2023-09-27T12:20:09.280Z,2185.22
2023-09-27T12:21:07.203Z,2103.21
2023-09-27T12:22:07.200Z,2128.16
2023-09-27T12:23:07.201Z,2254.82
2023-09-27T12:24:07.164Z,2432.19
2023-09-27T12:25:07.184Z,2504.66
2023-09-27T12:26:07.178Z,2528.20
2023-09-27T12:27:07.120Z,2604.06
2023-09-27T12:28:07.694Z,2502.32
2023-09-27T12:29:07.085Z,2490.74
2023-09-27T12:30:07.101Z,2490.74
2023-09-27T12:31:07.211Z,2472.43
2023-09-27T12:32:07.044Z,2461.12
2023-09-27T12:33:07.469Z,2341.17
2023-09-27T12:34:07.070Z,2432.19
2023-09-27T12:35:07.033Z,2523.45
2023-09-27T12:36:07.504Z,2650.25
2023-09-27T12:37:07.026Z,2681.95
2023-09-27T12:38:06.985Z,2793.35
2023-09-27T12:39:06.980Z,2892.47
2023-09-27T12:40:06.947Z,3069.02